sensor_id;sensor_type;location;lat;lon;timestamp;P1;durP1;ratioP1;P2;durP2;ratioP2
80758;SDS011;70150;45.582;10.178;2023-06-26T00:00:11;4.95;;;3.10;;
80758;SDS011;70150;45.582;10.178;2023-06-26T00:02:37;4.68;;;2.83;;
80758;SDS011;70150;45.582;10.178;2023-06-26T00:05:03;5.40;;;2.95;;
80758;SDS011;70150;45.582;10.178;2023-06-26T00:07:32;5.30;;;3.15;;
80758;SDS011;70150;45.582;10.178;2023-06-26T00:10:00;4.65;;;2.88;;
80758;SDS011;70150;45.582;10.178;2023-06-26T00:12:27;5.40;;;2.83;;
80758;SDS011;70150;45.582;10.178;2023-06-26T00:14:53;4.22;;;2.85;;
80758;SDS011;70150;45.582;10.178;2023-06-26T00:17:19;4.57;;;2.92;;
80758;SDS011;70150;45.582;10.178;2023-06-26T00:19:44;5.38;;;3.15;;
80758;SDS011;70150;45.582;10.178;2023-06-26T00:22:09;4.70;;;3.13;;
80758;SDS011;70150;45.582;10.178;2023-06-26T00:24:36;5.20;;;3.42;;
80758;SDS011;70150;45.582;10.178;2023-06-26T00:27:01;3.92;;;3.05;;
80758;SDS011;70150;45.582;10.178;2023-06-26T00:29:27;5.68;;;3.08;;
80758;SDS011;70150;45.582;10.178;2023-06-26T00:31:52;3.22;;;2.25;;
80758;SDS011;70150;45.582;10.178;2023-06-26T00:34:18;4.93;;;2.88;;
80758;SDS011;70150;45.582;10.178;2023-06-26T00:36:44;5.55;;;3.03;;
80758;SDS011;70150;45.582;10.178;2023-06-26T00:39:10;4.97;;;2.83;;
80758;SDS011;70150;45.582;10.178;2023-06-26T00:41:36;5.50;;;3.40;;
80758;SDS011;70150;45.582;10.178;2023-06-26T00:44:03;6.38;;;3.78;;
80758;SDS011;70150;45.582;10.178;2023-06-26T00:46:29;5.93;;;3.67;;
80758;SDS011;70150;45.582;10.178;2023-06-26T00:48:56;5.95;;;3.78;;
80758;SDS011;70150;45.582;10.178;2023-06-26T00:51:24;6.57;;;3.60;;
80758;SDS011;70150;45.582;10.178;2023-06-26T00:53:50;5.95;;;3.38;;
80758;SDS011;70150;45.582;10.178;2023-06-26T00:56:17;5.72;;;2.95;;
80758;SDS011;70150;45.582;10.178;2023-06-26T00:58:46;5.43;;;2.80;;
80758;SDS011;70150;45.582;10.178;2023-06-26T01:01:12;4.35;;;3.25;;
80758;SDS011;70150;45.582;10.178;2023-06-26T01:03:41;6.05;;;3.03;;
80758;SDS011;70150;45.582;10.178;2023-06-26T01:06:07;7.38;;;3.05;;
80758;SDS011;70150;45.582;10.178;2023-06-26T01:08:36;7.43;;;3.53;;
80758;SDS011;70150;45.582;10.178;2023-06-26T01:11:03;5.38;;;3.40;;
80758;SDS011;70150;45.582;10.178;2023-06-26T01:13:29;5.18;;;3.17;;
80758;SDS011;70150;45.582;10.178;2023-06-26T01:15:57;7.43;;;3.20;;
80758;SDS011;70150;45.582;10.178;2023-06-26T01:18:24;6.72;;;3.00;;
80758;SDS011;70150;45.582;10.178;2023-06-26T01:20:51;4.47;;;3.25;;
80758;SDS011;70150;45.582;10.178;2023-06-26T01:28:15;4.97;;;2.97;;
80758;SDS011;70150;45.582;10.178;2023-06-26T01:30:43;4.90;;;2.88;;
80758;SDS011;70150;45.582;10.178;2023-06-26T01:33:10;5.45;;;3.03;;
80758;SDS011;70150;45.582;10.178;2023-06-26T01:35:37;4.95;;;3.40;;
80758;SDS011;70150;45.582;10.178;2023-06-26T01:40:35;6.00;;;3.15;;
80758;SDS011;70150;45.582;10.178;2023-06-26T01:43:01;6.07;;;3.10;;
80758;SDS011;70150;45.582;10.178;2023-06-26T01:45:27;5.28;;;3.70;;
80758;SDS011;70150;45.582;10.178;2023-06-26T01:47:54;4.95;;;3.00;;
80758;SDS011;70150;45.582;10.178;2023-06-26T01:50:24;4.72;;;2.85;;
80758;SDS011;70150;45.582;10.178;2023-06-26T01:58:01;4.50;;;3.03;;
80758;SDS011;70150;45.582;10.178;2023-06-26T02:00:28;6.20;;;3.15;;
80758;SDS011;70150;45.582;10.178;2023-06-26T02:02:54;5.10;;;3.17;;
80758;SDS011;70150;45.582;10.178;2023-06-26T02:05:20;6.00;;;3.38;;
80758;SDS011;70150;45.582;10.178;2023-06-26T02:07:45;5.38;;;3.30;;
80758;SDS011;70150;45.582;10.178;2023-06-26T02:10:11;4.35;;;2.97;;
80758;SDS011;70150;45.582;10.178;2023-06-26T02:12:37;5.72;;;3.20;;
80758;SDS011;70150;45.582;10.178;2023-06-26T02:15:03;7.20;;;3.00;;
80758;SDS011;70150;45.582;10.178;2023-06-26T02:17:29;4.65;;;3.05;;
80758;SDS011;70150;45.582;10.178;2023-06-26T02:19:55;5.18;;;3.08;;
80758;SDS011;70150;45.582;10.178;2023-06-26T02:22:20;5.25;;;3.20;;
80758;SDS011;70150;45.582;10.178;2023-06-26T02:24:46;5.70;;;3.38;;
80758;SDS011;70150;45.582;10.178;2023-06-26T02:27:12;4.88;;;3.30;;
80758;SDS011;70150;45.582;10.178;2023-06-26T02:29:38;7.25;;;3.45;;
80758;SDS011;70150;45.582;10.178;2023-06-26T02:32:04;5.55;;;3.22;;
80758;SDS011;70150;45.582;10.178;2023-06-26T02:34:33;4.90;;;3.17;;
80758;SDS011;70150;45.582;10.178;2023-06-26T02:36:59;5.80;;;2.92;;
80758;SDS011;70150;45.582;10.178;2023-06-26T02:39:25;5.50;;;3.40;;
80758;SDS011;70150;45.582;10.178;2023-06-26T02:41:51;6.32;;;3.30;;
80758;SDS011;70150;45.582;10.178;2023-06-26T02:44:17;7.97;;;3.10;;
80758;SDS011;70150;45.582;10.178;2023-06-26T02:46:43;4.78;;;3.60;;
80758;SDS011;70150;45.582;10.178;2023-06-26T02:49:08;7.93;;;3.22;;
80758;SDS011;70150;45.582;10.178;2023-06-26T02:51:34;4.30;;;3.30;;
80758;SDS011;70150;45.582;10.178;2023-06-26T02:54:00;4.32;;;3.05;;
80758;SDS011;70150;45.582;10.178;2023-06-26T02:56:26;4.70;;;3.35;;
80758;SDS011;70150;45.582;10.178;2023-06-26T02:58:55;6.28;;;3.72;;
80758;SDS011;70150;45.582;10.178;2023-06-26T03:01:21;5.53;;;3.33;;
80758;SDS011;70150;45.582;10.178;2023-06-26T03:03:47;5.85;;;2.95;;
80758;SDS011;70150;45.582;10.178;2023-06-26T03:06:13;5.05;;;3.33;;
80758;SDS011;70150;45.582;10.178;2023-06-26T03:08:39;5.45;;;2.92;;
80758;SDS011;70150;45.582;10.178;2023-06-26T03:11:05;5.10;;;3.17;;
80758;SDS011;70150;45.582;10.178;2023-06-26T03:15:57;5.25;;;3.30;;
80758;SDS011;70150;45.582;10.178;2023-06-26T03:18:23;5.80;;;3.38;;
80758;SDS011;70150;45.582;10.178;2023-06-26T03:20:51;6.65;;;3.50;;
80758;SDS011;70150;45.582;10.178;2023-06-26T03:23:19;4.32;;;3.10;;
80758;SDS011;70150;45.582;10.178;2023-06-26T03:25:45;5.50;;;3.20;;
80758;SDS011;70150;45.582;10.178;2023-06-26T03:28:11;6.13;;;3.20;;
80758;SDS011;70150;45.582;10.178;2023-06-26T03:30:36;6.38;;;3.38;;
80758;SDS011;70150;45.582;10.178;2023-06-26T03:33:02;5.88;;;3.40;;
80758;SDS011;70150;45.582;10.178;2023-06-26T03:35:30;6.13;;;3.53;;
80758;SDS011;70150;45.582;10.178;2023-06-26T03:37:56;8.13;;;3.90;;
80758;SDS011;70150;45.582;10.178;2023-06-26T03:42:48;5.88;;;3.80;;
80758;SDS011;70150;45.582;10.178;2023-06-26T03:45:14;6.50;;;3.45;;
80758;SDS011;70150;45.582;10.178;2023-06-26T03:47:39;4.88;;;3.55;;
80758;SDS011;70150;45.582;10.178;2023-06-26T03:50:05;6.35;;;3.80;;
80758;SDS011;70150;45.582;10.178;2023-06-26T03:52:31;6.13;;;3.53;;
80758;SDS011;70150;45.582;10.178;2023-06-26T03:54:59;5.53;;;3.42;;
80758;SDS011;70150;45.582;10.178;2023-06-26T03:59:53;5.10;;;3.67;;
80758;SDS011;70150;45.582;10.178;2023-06-26T04:02:19;6.00;;;4.00;;
80758;SDS011;70150;45.582;10.178;2023-06-26T04:04:44;5.13;;;3.35;;
80758;SDS011;70150;45.582;10.178;2023-06-26T04:07:10;4.95;;;3.40;;
80758;SDS011;70150;45.582;10.178;2023-06-26T04:09:35;4.90;;;3.40;;
80758;SDS011;70150;45.582;10.178;2023-06-26T04:12:02;5.50;;;3.60;;
80758;SDS011;70150;45.582;10.178;2023-06-26T04:14:28;5.10;;;3.22;;
80758;SDS011;70150;45.582;10.178;2023-06-26T04:16:53;4.55;;;3.25;;
80758;SDS011;70150;45.582;10.178;2023-06-26T04:19:21;6.72;;;3.63;;
80758;SDS011;70150;45.582;10.178;2023-06-26T04:21:49;5.53;;;3.40;;
80758;SDS011;70150;45.582;10.178;2023-06-26T04:24:15;7.25;;;4.07;;
80758;SDS011;70150;45.582;10.178;2023-06-26T04:26:40;7.47;;;3.47;;
80758;SDS011;70150;45.582;10.178;2023-06-26T04:29:06;5.13;;;3.38;;
80758;SDS011;70150;45.582;10.178;2023-06-26T04:31:32;5.35;;;3.42;;
80758;SDS011;70150;45.582;10.178;2023-06-26T04:33:57;4.75;;;3.28;;
80758;SDS011;70150;45.582;10.178;2023-06-26T04:38:54;5.68;;;3.20;;
80758;SDS011;70150;45.582;10.178;2023-06-26T04:41:20;7.80;;;3.80;;
80758;SDS011;70150;45.582;10.178;2023-06-26T04:43:46;4.18;;;3.03;;
80758;SDS011;70150;45.582;10.178;2023-06-26T04:46:11;6.32;;;3.25;;
80758;SDS011;70150;45.582;10.178;2023-06-26T04:48:37;5.30;;;2.97;;
80758;SDS011;70150;45.582;10.178;2023-06-26T04:51:02;5.32;;;3.50;;
80758;SDS011;70150;45.582;10.178;2023-06-26T04:53:28;6.22;;;3.70;;
80758;SDS011;70150;45.582;10.178;2023-06-26T04:55:54;5.90;;;3.00;;
80758;SDS011;70150;45.582;10.178;2023-06-26T04:58:19;6.70;;;3.13;;
80758;SDS011;70150;45.582;10.178;2023-06-26T05:00:45;5.72;;;3.47;;
80758;SDS011;70150;45.582;10.178;2023-06-26T05:03:11;7.38;;;3.53;;
80758;SDS011;70150;45.582;10.178;2023-06-26T05:05:38;5.72;;;3.65;;
80758;SDS011;70150;45.582;10.178;2023-06-26T05:10:38;4.72;;;3.47;;
80758;SDS011;70150;45.582;10.178;2023-06-26T05:13:03;5.85;;;3.38;;
80758;SDS011;70150;45.582;10.178;2023-06-26T05:15:29;4.78;;;3.03;;
80758;SDS011;70150;45.582;10.178;2023-06-26T05:17:54;6.85;;;3.45;;
80758;SDS011;70150;45.582;10.178;2023-06-26T05:20:20;8.30;;;3.20;;
80758;SDS011;70150;45.582;10.178;2023-06-26T05:22:45;4.75;;;3.40;;
80758;SDS011;70150;45.582;10.178;2023-06-26T05:25:12;5.50;;;3.45;;
80758;SDS011;70150;45.582;10.178;2023-06-26T05:27:40;5.47;;;3.47;;
80758;SDS011;70150;45.582;10.178;2023-06-26T05:30:07;6.82;;;3.83;;
80758;SDS011;70150;45.582;10.178;2023-06-26T05:34:59;4.70;;;3.60;;
80758;SDS011;70150;45.582;10.178;2023-06-26T05:37:27;5.72;;;3.83;;
80758;SDS011;70150;45.582;10.178;2023-06-26T05:42:19;6.85;;;3.40;;
80758;SDS011;70150;45.582;10.178;2023-06-26T05:44:45;6.68;;;3.13;;
80758;SDS011;70150;45.582;10.178;2023-06-26T05:47:11;3.78;;;3.17;;
80758;SDS011;70150;45.582;10.178;2023-06-26T05:49:36;5.40;;;3.50;;
80758;SDS011;70150;45.582;10.178;2023-06-26T05:52:02;5.25;;;2.78;;
80758;SDS011;70150;45.582;10.178;2023-06-26T05:54:30;6.32;;;3.03;;
80758;SDS011;70150;45.582;10.178;2023-06-26T05:56:56;5.15;;;3.70;;
80758;SDS011;70150;45.582;10.178;2023-06-26T05:59:25;5.70;;;3.35;;
80758;SDS011;70150;45.582;10.178;2023-06-26T06:01:51;5.78;;;3.70;;
80758;SDS011;70150;45.582;10.178;2023-06-26T06:04:17;4.47;;;3.35;;
80758;SDS011;70150;45.582;10.178;2023-06-26T06:06:43;5.40;;;3.45;;
80758;SDS011;70150;45.582;10.178;2023-06-26T06:09:08;6.00;;;3.22;;
80758;SDS011;70150;45.582;10.178;2023-06-26T06:11:34;3.95;;;3.00;;
80758;SDS011;70150;45.582;10.178;2023-06-26T06:14:00;5.95;;;3.17;;
80758;SDS011;70150;45.582;10.178;2023-06-26T06:16:25;4.40;;;3.03;;
80758;SDS011;70150;45.582;10.178;2023-06-26T06:18:54;4.90;;;3.30;;
80758;SDS011;70150;45.582;10.178;2023-06-26T06:21:19;5.63;;;3.40;;
80758;SDS011;70150;45.582;10.178;2023-06-26T06:23:45;9.15;;;3.30;;
80758;SDS011;70150;45.582;10.178;2023-06-26T06:26:10;6.60;;;3.38;;
80758;SDS011;70150;45.582;10.178;2023-06-26T06:28:36;7.60;;;3.60;;
80758;SDS011;70150;45.582;10.178;2023-06-26T06:31:03;6.72;;;3.25;;
80758;SDS011;70150;45.582;10.178;2023-06-26T06:33:28;6.18;;;3.50;;
80758;SDS011;70150;45.582;10.178;2023-06-26T06:35:54;6.95;;;3.03;;
80758;SDS011;70150;45.582;10.178;2023-06-26T06:38:19;5.15;;;3.05;;
80758;SDS011;70150;45.582;10.178;2023-06-26T06:40:45;5.80;;;3.40;;
80758;SDS011;70150;45.582;10.178;2023-06-26T06:43:11;4.85;;;3.35;;
80758;SDS011;70150;45.582;10.178;2023-06-26T06:45:36;5.28;;;3.10;;
80758;SDS011;70150;45.582;10.178;2023-06-26T06:48:03;4.55;;;3.25;;
80758;SDS011;70150;45.582;10.178;2023-06-26T06:50:29;5.72;;;3.63;;
80758;SDS011;70150;45.582;10.178;2023-06-26T06:52:54;4.93;;;3.50;;
80758;SDS011;70150;45.582;10.178;2023-06-26T06:55:20;3.88;;;3.03;;
80758;SDS011;70150;45.582;10.178;2023-06-26T06:57:46;7.90;;;3.60;;
80758;SDS011;70150;45.582;10.178;2023-06-26T07:00:12;12.05;;;4.05;;
80758;SDS011;70150;45.582;10.178;2023-06-26T07:02:40;6.95;;;3.47;;
80758;SDS011;70150;45.582;10.178;2023-06-26T07:05:07;7.00;;;3.70;;
80758;SDS011;70150;45.582;10.178;2023-06-26T07:07:33;5.53;;;3.65;;
80758;SDS011;70150;45.582;10.178;2023-06-26T07:10:00;4.97;;;3.55;;
80758;SDS011;70150;45.582;10.178;2023-06-26T07:12:28;5.40;;;3.58;;
80758;SDS011;70150;45.582;10.178;2023-06-26T07:14:54;5.47;;;3.50;;
80758;SDS011;70150;45.582;10.178;2023-06-26T07:17:20;6.78;;;3.47;;
80758;SDS011;70150;45.582;10.178;2023-06-26T07:19:46;5.75;;;3.33;;
80758;SDS011;70150;45.582;10.178;2023-06-26T07:22:12;5.13;;;3.45;;
80758;SDS011;70150;45.582;10.178;2023-06-26T07:24:38;10.65;;;3.00;;
80758;SDS011;70150;45.582;10.178;2023-06-26T07:27:04;4.65;;;3.20;;
80758;SDS011;70150;45.582;10.178;2023-06-26T07:29:29;4.57;;;3.30;;
80758;SDS011;70150;45.582;10.178;2023-06-26T07:31:55;7.80;;;3.30;;
80758;SDS011;70150;45.582;10.178;2023-06-26T07:34:21;6.90;;;2.88;;
80758;SDS011;70150;45.582;10.178;2023-06-26T07:36:46;5.50;;;3.08;;
80758;SDS011;70150;45.582;10.178;2023-06-26T07:39:12;5.95;;;3.40;;
80758;SDS011;70150;45.582;10.178;2023-06-26T07:41:37;4.25;;;3.30;;
80758;SDS011;70150;45.582;10.178;2023-06-26T07:44:03;5.28;;;3.58;;
80758;SDS011;70150;45.582;10.178;2023-06-26T07:46:28;4.50;;;3.40;;
80758;SDS011;70150;45.582;10.178;2023-06-26T07:48:54;6.18;;;3.42;;
80758;SDS011;70150;45.582;10.178;2023-06-26T07:51:20;7.30;;;3.92;;
80758;SDS011;70150;45.582;10.178;2023-06-26T07:53:45;6.47;;;3.67;;
80758;SDS011;70150;45.582;10.178;2023-06-26T07:56:11;7.18;;;3.90;;
80758;SDS011;70150;45.582;10.178;2023-06-26T07:58:37;8.98;;;3.92;;
80758;SDS011;70150;45.582;10.178;2023-06-26T08:01:02;6.55;;;4.03;;
80758;SDS011;70150;45.582;10.178;2023-06-26T08:03:28;6.85;;;4.13;;
80758;SDS011;70150;45.582;10.178;2023-06-26T08:05:53;6.88;;;3.88;;
80758;SDS011;70150;45.582;10.178;2023-06-26T08:08:19;6.47;;;3.63;;
80758;SDS011;70150;45.582;10.178;2023-06-26T08:10:44;6.18;;;3.58;;
80758;SDS011;70150;45.582;10.178;2023-06-26T08:13:10;5.90;;;3.70;;
80758;SDS011;70150;45.582;10.178;2023-06-26T08:15:36;4.03;;;3.30;;
80758;SDS011;70150;45.582;10.178;2023-06-26T08:18:01;7.70;;;3.25;;
80758;SDS011;70150;45.582;10.178;2023-06-26T08:20:27;6.28;;;3.97;;
80758;SDS011;70150;45.582;10.178;2023-06-26T08:22:53;8.50;;;3.60;;
80758;SDS011;70150;45.582;10.178;2023-06-26T08:25:19;8.18;;;3.42;;
80758;SDS011;70150;45.582;10.178;2023-06-26T08:27:45;5.15;;;3.28;;
80758;SDS011;70150;45.582;10.178;2023-06-26T08:30:11;4.28;;;3.45;;
80758;SDS011;70150;45.582;10.178;2023-06-26T08:32:36;5.03;;;3.42;;
80758;SDS011;70150;45.582;10.178;2023-06-26T08:35:05;6.70;;;3.28;;
80758;SDS011;70150;45.582;10.178;2023-06-26T08:37:32;5.97;;;3.63;;
80758;SDS011;70150;45.582;10.178;2023-06-26T08:42:26;5.47;;;3.72;;
80758;SDS011;70150;45.582;10.178;2023-06-26T08:44:52;5.85;;;3.60;;
80758;SDS011;70150;45.582;10.178;2023-06-26T08:47:18;6.40;;;3.90;;
80758;SDS011;70150;45.582;10.178;2023-06-26T08:54:52;5.95;;;3.60;;
80758;SDS011;70150;45.582;10.178;2023-06-26T08:57:21;4.28;;;3.33;;
80758;SDS011;70150;45.582;10.178;2023-06-26T08:59:48;6.05;;;3.38;;
80758;SDS011;70150;45.582;10.178;2023-06-26T09:02:14;7.55;;;3.50;;
80758;SDS011;70150;45.582;10.178;2023-06-26T09:04:40;7.53;;;3.80;;
80758;SDS011;70150;45.582;10.178;2023-06-26T09:07:05;6.07;;;3.80;;
80758;SDS011;70150;45.582;10.178;2023-06-26T09:09:31;9.32;;;3.50;;
80758;SDS011;70150;45.582;10.178;2023-06-26T09:11:57;9.45;;;3.90;;
80758;SDS011;70150;45.582;10.178;2023-06-26T09:14:25;6.07;;;3.80;;
80758;SDS011;70150;45.582;10.178;2023-06-26T09:16:51;7.45;;;3.70;;
80758;SDS011;70150;45.582;10.178;2023-06-26T09:19:16;6.13;;;4.10;;
80758;SDS011;70150;45.582;10.178;2023-06-26T09:21:42;8.63;;;3.95;;
80758;SDS011;70150;45.582;10.178;2023-06-26T09:24:08;7.18;;;3.80;;
80758;SDS011;70150;45.582;10.178;2023-06-26T09:26:35;12.13;;;4.40;;
80758;SDS011;70150;45.582;10.178;2023-06-26T09:29:02;8.10;;;4.05;;
80758;SDS011;70150;45.582;10.178;2023-06-26T09:31:28;9.32;;;3.95;;
80758;SDS011;70150;45.582;10.178;2023-06-26T09:36:26;6.95;;;3.70;;
80758;SDS011;70150;45.582;10.178;2023-06-26T09:38:53;9.23;;;4.10;;
80758;SDS011;70150;45.582;10.178;2023-06-26T09:41:19;4.78;;;3.58;;
80758;SDS011;70150;45.582;10.178;2023-06-26T09:46:15;4.70;;;3.22;;
80758;SDS011;70150;45.582;10.178;2023-06-26T09:48:41;9.25;;;3.70;;
80758;SDS011;70150;45.582;10.178;2023-06-26T09:51:07;6.22;;;3.10;;
80758;SDS011;70150;45.582;10.178;2023-06-26T09:53:34;6.72;;;3.80;;
80758;SDS011;70150;45.582;10.178;2023-06-26T09:56:05;4.88;;;3.13;;
80758;SDS011;70150;45.582;10.178;2023-06-26T09:58:32;8.50;;;3.72;;
80758;SDS011;70150;45.582;10.178;2023-06-26T10:00:58;7.93;;;3.70;;
80758;SDS011;70150;45.582;10.178;2023-06-26T10:03:23;7.63;;;3.95;;
80758;SDS011;70150;45.582;10.178;2023-06-26T10:05:49;6.72;;;3.70;;
80758;SDS011;70150;45.582;10.178;2023-06-26T10:08:16;8.00;;;3.95;;
80758;SDS011;70150;45.582;10.178;2023-06-26T10:10:42;7.55;;;4.00;;
80758;SDS011;70150;45.582;10.178;2023-06-26T10:13:12;10.45;;;3.70;;
80758;SDS011;70150;45.582;10.178;2023-06-26T10:15:44;8.95;;;4.03;;
80758;SDS011;70150;45.582;10.178;2023-06-26T10:18:11;5.70;;;3.45;;
80758;SDS011;70150;45.582;10.178;2023-06-26T10:20:40;9.32;;;4.20;;
80758;SDS011;70150;45.582;10.178;2023-06-26T10:23:08;7.85;;;3.88;;
80758;SDS011;70150;45.582;10.178;2023-06-26T10:25:36;8.95;;;4.28;;
80758;SDS011;70150;45.582;10.178;2023-06-26T10:28:05;8.43;;;3.60;;
80758;SDS011;70150;45.582;10.178;2023-06-26T10:30:34;7.03;;;3.78;;
80758;SDS011;70150;45.582;10.178;2023-06-26T10:33:02;8.30;;;3.70;;
80758;SDS011;70150;45.582;10.178;2023-06-26T10:35:29;5.30;;;3.65;;
80758;SDS011;70150;45.582;10.178;2023-06-26T10:40:39;6.55;;;3.72;;
80758;SDS011;70150;45.582;10.178;2023-06-26T10:43:06;5.78;;;3.70;;
80758;SDS011;70150;45.582;10.178;2023-06-26T10:45:33;8.75;;;3.63;;
80758;SDS011;70150;45.582;10.178;2023-06-26T10:48:00;6.70;;;3.60;;
80758;SDS011;70150;45.582;10.178;2023-06-26T10:50:28;5.50;;;3.45;;
80758;SDS011;70150;45.582;10.178;2023-06-26T10:55:27;8.82;;;4.28;;
80758;SDS011;70150;45.582;10.178;2023-06-26T10:57:53;11.43;;;3.83;;
80758;SDS011;70150;45.582;10.178;2023-06-26T11:00:20;6.47;;;3.88;;
80758;SDS011;70150;45.582;10.178;2023-06-26T11:02:48;5.32;;;3.75;;
80758;SDS011;70150;45.582;10.178;2023-06-26T11:10:19;7.72;;;3.58;;
80758;SDS011;70150;45.582;10.178;2023-06-26T11:12:44;7.00;;;3.85;;
80758;SDS011;70150;45.582;10.178;2023-06-26T11:17:40;9.25;;;4.03;;
80758;SDS011;70150;45.582;10.178;2023-06-26T11:20:07;8.55;;;4.10;;
80758;SDS011;70150;45.582;10.178;2023-06-26T11:22:35;7.43;;;4.15;;
80758;SDS011;70150;45.582;10.178;2023-06-26T11:25:02;9.00;;;4.32;;
80758;SDS011;70150;45.582;10.178;2023-06-26T11:27:32;12.10;;;3.92;;
80758;SDS011;70150;45.582;10.178;2023-06-26T11:30:01;7.03;;;3.67;;
80758;SDS011;70150;45.582;10.178;2023-06-26T11:32:26;11.93;;;3.72;;
80758;SDS011;70150;45.582;10.178;2023-06-26T11:34:54;5.53;;;3.63;;
80758;SDS011;70150;45.582;10.178;2023-06-26T11:37:20;7.60;;;3.65;;
80758;SDS011;70150;45.582;10.178;2023-06-26T11:42:11;6.60;;;4.00;;
80758;SDS011;70150;45.582;10.178;2023-06-26T11:47:08;6.85;;;3.95;;
80758;SDS011;70150;45.582;10.178;2023-06-26T11:49:37;7.65;;;3.97;;
80758;SDS011;70150;45.582;10.178;2023-06-26T11:52:03;6.40;;;3.70;;
80758;SDS011;70150;45.582;10.178;2023-06-26T11:54:29;8.45;;;3.70;;
80758;SDS011;70150;45.582;10.178;2023-06-26T11:56:56;8.23;;;3.90;;
80758;SDS011;70150;45.582;10.178;2023-06-26T11:59:23;6.15;;;3.88;;
80758;SDS011;70150;45.582;10.178;2023-06-26T12:01:50;6.90;;;3.50;;
80758;SDS011;70150;45.582;10.178;2023-06-26T12:04:18;7.93;;;3.83;;
80758;SDS011;70150;45.582;10.178;2023-06-26T12:06:46;6.30;;;3.75;;
80758;SDS011;70150;45.582;10.178;2023-06-26T12:09:13;7.10;;;4.20;;
80758;SDS011;70150;45.582;10.178;2023-06-26T12:11:41;6.38;;;3.70;;
80758;SDS011;70150;45.582;10.178;2023-06-26T12:14:08;10.23;;;4.00;;
80758;SDS011;70150;45.582;10.178;2023-06-26T12:16:35;9.75;;;3.90;;
80758;SDS011;70150;45.582;10.178;2023-06-26T12:19:03;8.13;;;3.47;;
80758;SDS011;70150;45.582;10.178;2023-06-26T12:24:01;9.73;;;3.72;;
80758;SDS011;70150;45.582;10.178;2023-06-26T12:26:27;5.53;;;3.80;;
80758;SDS011;70150;45.582;10.178;2023-06-26T12:31:26;6.47;;;3.72;;
80758;SDS011;70150;45.582;10.178;2023-06-26T12:33:51;6.53;;;3.92;;
80758;SDS011;70150;45.582;10.178;2023-06-26T12:36:17;6.40;;;4.00;;
80758;SDS011;70150;45.582;10.178;2023-06-26T12:38:46;6.10;;;3.40;;
80758;SDS011;70150;45.582;10.178;2023-06-26T12:41:12;8.48;;;3.90;;
80758;SDS011;70150;45.582;10.178;2023-06-26T12:43:42;8.25;;;3.85;;
80758;SDS011;70150;45.582;10.178;2023-06-26T12:53:34;5.70;;;3.88;;
80758;SDS011;70150;45.582;10.178;2023-06-26T12:55:59;9.13;;;3.95;;
80758;SDS011;70150;45.582;10.178;2023-06-26T12:58:25;12.52;;;3.70;;
80758;SDS011;70150;45.582;10.178;2023-06-26T13:00:50;8.57;;;3.83;;
80758;SDS011;70150;45.582;10.178;2023-06-26T13:03:16;8.90;;;3.75;;
80758;SDS011;70150;45.582;10.178;2023-06-26T13:05:41;7.05;;;3.90;;
80758;SDS011;70150;45.582;10.178;2023-06-26T13:08:07;6.22;;;3.88;;
80758;SDS011;70150;45.582;10.178;2023-06-26T13:10:35;7.47;;;3.85;;
80758;SDS011;70150;45.582;10.178;2023-06-26T13:13:00;9.13;;;3.97;;
80758;SDS011;70150;45.582;10.178;2023-06-26T13:15:26;7.32;;;3.80;;
80758;SDS011;70150;45.582;10.178;2023-06-26T13:17:52;7.03;;;3.72;;
80758;SDS011;70150;45.582;10.178;2023-06-26T13:20:17;8.60;;;4.05;;
80758;SDS011;70150;45.582;10.178;2023-06-26T13:22:43;6.38;;;3.75;;
80758;SDS011;70150;45.582;10.178;2023-06-26T13:25:08;5.43;;;3.85;;
80758;SDS011;70150;45.582;10.178;2023-06-26T13:27:34;8.43;;;3.47;;
80758;SDS011;70150;45.582;10.178;2023-06-26T13:29:59;5.93;;;3.72;;
80758;SDS011;70150;45.582;10.178;2023-06-26T13:32:27;7.90;;;3.80;;
80758;SDS011;70150;45.582;10.178;2023-06-26T13:34:52;7.47;;;3.60;;
80758;SDS011;70150;45.582;10.178;2023-06-26T13:37:19;5.82;;;3.72;;
80758;SDS011;70150;45.582;10.178;2023-06-26T13:39:44;6.90;;;3.92;;
80758;SDS011;70150;45.582;10.178;2023-06-26T13:42:15;7.82;;;3.92;;
80758;SDS011;70150;45.582;10.178;2023-06-26T13:44:41;6.55;;;3.60;;
80758;SDS011;70150;45.582;10.178;2023-06-26T13:47:07;11.93;;;4.05;;
80758;SDS011;70150;45.582;10.178;2023-06-26T13:49:35;6.95;;;3.80;;
80758;SDS011;70150;45.582;10.178;2023-06-26T13:52:00;8.30;;;3.83;;
80758;SDS011;70150;45.582;10.178;2023-06-26T13:54:26;6.05;;;3.75;;
80758;SDS011;70150;45.582;10.178;2023-06-26T13:56:52;8.48;;;3.67;;
80758;SDS011;70150;45.582;10.178;2023-06-26T13:59:22;7.00;;;3.75;;
80758;SDS011;70150;45.582;10.178;2023-06-26T14:01:50;9.73;;;4.13;;
80758;SDS011;70150;45.582;10.178;2023-06-26T14:04:15;9.68;;;3.88;;
80758;SDS011;70150;45.582;10.178;2023-06-26T14:06:41;7.15;;;3.65;;
80758;SDS011;70150;45.582;10.178;2023-06-26T14:09:07;10.55;;;3.78;;
80758;SDS011;70150;45.582;10.178;2023-06-26T14:11:33;5.85;;;3.53;;
80758;SDS011;70150;45.582;10.178;2023-06-26T14:13:59;9.30;;;3.80;;
80758;SDS011;70150;45.582;10.178;2023-06-26T14:16:25;7.10;;;3.83;;
80758;SDS011;70150;45.582;10.178;2023-06-26T14:18:51;9.35;;;3.72;;
80758;SDS011;70150;45.582;10.178;2023-06-26T14:21:16;7.00;;;4.22;;
80758;SDS011;70150;45.582;10.178;2023-06-26T14:23:42;8.13;;;3.80;;
80758;SDS011;70150;45.582;10.178;2023-06-26T14:26:08;5.57;;;3.60;;
80758;SDS011;70150;45.582;10.178;2023-06-26T14:28:33;9.55;;;3.67;;
80758;SDS011;70150;45.582;10.178;2023-06-26T14:30:59;7.32;;;4.07;;
80758;SDS011;70150;45.582;10.178;2023-06-26T14:33:27;8.68;;;4.10;;
80758;SDS011;70150;45.582;10.178;2023-06-26T14:35:55;6.63;;;3.70;;
80758;SDS011;70150;45.582;10.178;2023-06-26T14:38:23;8.45;;;3.80;;
80758;SDS011;70150;45.582;10.178;2023-06-26T14:40:48;10.20;;;4.13;;
80758;SDS011;70150;45.582;10.178;2023-06-26T14:43:14;7.07;;;4.28;;
80758;SDS011;70150;45.582;10.178;2023-06-26T14:45:39;8.68;;;3.80;;
80758;SDS011;70150;45.582;10.178;2023-06-26T14:48:09;8.13;;;4.18;;
80758;SDS011;70150;45.582;10.178;2023-06-26T14:50:34;8.73;;;4.45;;
80758;SDS011;70150;45.582;10.178;2023-06-26T14:53:00;9.10;;;4.20;;
80758;SDS011;70150;45.582;10.178;2023-06-26T14:55:25;8.50;;;4.15;;
80758;SDS011;70150;45.582;10.178;2023-06-26T14:57:51;6.25;;;3.67;;
80758;SDS011;70150;45.582;10.178;2023-06-26T15:00:17;6.00;;;3.63;;
80758;SDS011;70150;45.582;10.178;2023-06-26T15:02:44;7.30;;;4.32;;
80758;SDS011;70150;45.582;10.178;2023-06-26T15:05:10;9.00;;;3.78;;
80758;SDS011;70150;45.582;10.178;2023-06-26T15:07:35;7.07;;;3.80;;
80758;SDS011;70150;45.582;10.178;2023-06-26T15:10:01;9.80;;;3.90;;
80758;SDS011;70150;45.582;10.178;2023-06-26T15:12:27;11.73;;;4.68;;
80758;SDS011;70150;45.582;10.178;2023-06-26T15:14:52;8.73;;;3.65;;
80758;SDS011;70150;45.582;10.178;2023-06-26T15:17:18;10.75;;;3.85;;
80758;SDS011;70150;45.582;10.178;2023-06-26T15:19:43;7.18;;;3.70;;
80758;SDS011;70150;45.582;10.178;2023-06-26T15:22:09;8.40;;;3.90;;
80758;SDS011;70150;45.582;10.178;2023-06-26T15:24:35;9.90;;;3.88;;
80758;SDS011;70150;45.582;10.178;2023-06-26T15:27:00;8.45;;;3.92;;
80758;SDS011;70150;45.582;10.178;2023-06-26T15:29:26;8.05;;;3.95;;
80758;SDS011;70150;45.582;10.178;2023-06-26T15:31:52;7.25;;;4.05;;
80758;SDS011;70150;45.582;10.178;2023-06-26T15:34:19;8.98;;;4.43;;
80758;SDS011;70150;45.582;10.178;2023-06-26T15:36:44;11.15;;;4.53;;
80758;SDS011;70150;45.582;10.178;2023-06-26T15:39:10;10.18;;;4.00;;